sensor_id;sensor_type;location;lat;lon;timestamp;temperature;humidity
13982;DHT22;7065;50.880;5.502;2024-03-23T00:53:15;6.60;99.90
13982;DHT22;7065;50.880;5.502;2024-03-23T00:55:44;6.40;99.90
13982;DHT22;7065;50.880;5.502;2024-03-23T00:58:10;6.40;99.90
13982;DHT22;7065;50.880;5.502;2024-03-23T01:00:35;6.30;99.90
13982;DHT22;7065;50.880;5.502;2024-03-23T01:03:01;6.30;99.90
13982;DHT22;7065;50.880;5.502;2024-03-23T01:05:27;6.20;99.90
13982;DHT22;7065;50.880;5.502;2024-03-23T01:07:52;6.20;99.90
13982;DHT22;7065;50.880;5.502;2024-03-23T01:10:18;6.20;99.90
13982;DHT22;7065;50.880;5.502;2024-03-23T01:12:44;6.20;99.90
13982;DHT22;7065;50.880;5.502;2024-03-23T01:15:09;6.20;99.90
13982;DHT22;7065;50.880;5.502;2024-03-23T01:17:35;6.10;99.90
13982;DHT22;7065;50.880;5.502;2024-03-23T01:20:01;6.20;99.90
13982;DHT22;7065;50.880;5.502;2024-03-23T01:22:28;6.20;99.90
13982;DHT22;7065;50.880;5.502;2024-03-23T01:24:53;6.20;99.90
13982;DHT22;7065;50.880;5.502;2024-03-23T01:27:19;6.20;99.90
13982;DHT22;7065;50.880;5.502;2024-03-23T01:29:45;6.20;99.90
13982;DHT22;7065;50.880;5.502;2024-03-23T01:32:10;6.20;99.90
13982;DHT22;7065;50.880;5.502;2024-03-23T01:34:36;6.20;99.90
13982;DHT22;7065;50.880;5.502;2024-03-23T01:37:02;6.20;99.90
13982;DHT22;7065;50.880;5.502;2024-03-23T01:39:27;6.20;99.90
13982;DHT22;7065;50.880;5.502;2024-03-23T01:41:53;6.20;99.90
13982;DHT22;7065;50.880;5.502;2024-03-23T01:44:19;6.20;99.90
13982;DHT22;7065;50.880;5.502;2024-03-23T01:46:45;6.20;99.90
13982;DHT22;7065;50.880;5.502;2024-03-23T01:49:10;6.30;99.90
13982;DHT22;7065;50.880;5.502;2024-03-23T01:51:37;6.20;99.90
13982;DHT22;7065;50.880;5.502;2024-03-23T01:54:03;6.20;99.90
13982;DHT22;7065;50.880;5.502;2024-03-23T01:56:33;6.20;99.90
13982;DHT22;7065;50.880;5.502;2024-03-23T01:59:01;6.20;99.90
13982;DHT22;7065;50.880;5.502;2024-03-23T02:01:27;6.20;99.90
13982;DHT22;7065;50.880;5.502;2024-03-23T02:03:52;6.20;99.90
13982;DHT22;7065;50.880;5.502;2024-03-23T02:06:18;6.20;99.90
13982;DHT22;7065;50.880;5.502;2024-03-23T02:08:44;6.20;99.90
13982;DHT22;7065;50.880;5.502;2024-03-23T02:11:09;6.20;99.90
13982;DHT22;7065;50.880;5.502;2024-03-23T02:13:35;6.20;99.90
13982;DHT22;7065;50.880;5.502;2024-03-23T02:16:01;6.20;99.90
13982;DHT22;7065;50.880;5.502;2024-03-23T02:18:26;6.20;99.90
13982;DHT22;7065;50.880;5.502;2024-03-23T02:20:52;6.20;99.90
13982;DHT22;7065;50.880;5.502;2024-03-23T02:23:18;6.20;99.90
13982;DHT22;7065;50.880;5.502;2024-03-23T02:25:44;6.20;99.90
13982;DHT22;7065;50.880;5.502;2024-03-23T02:28:10;6.20;99.90
13982;DHT22;7065;50.880;5.502;2024-03-23T02:30:36;6.20;99.90
13982;DHT22;7065;50.880;5.502;2024-03-23T02:33:02;6.20;99.90
13982;DHT22;7065;50.880;5.502;2024-03-23T02:35:28;6.20;99.90
13982;DHT22;7065;50.880;5.502;2024-03-23T02:37:54;6.10;99.90
13982;DHT22;7065;50.880;5.502;2024-03-23T02:40:23;6.10;99.90
13982;DHT22;7065;50.880;5.502;2024-03-23T02:42:49;6.10;99.90
13982;DHT22;7065;50.880;5.502;2024-03-23T02:45:15;6.10;99.90
13982;DHT22;7065;50.880;5.502;2024-03-23T02:47:41;6.10;99.90
13982;DHT22;7065;50.880;5.502;2024-03-23T02:50:07;6.10;99.90
13982;DHT22;7065;50.880;5.502;2024-03-23T02:52:34;6.00;99.90
13982;DHT22;7065;50.880;5.502;2024-03-23T02:55:00;6.00;99.90
13982;DHT22;7065;50.880;5.502;2024-03-23T02:57:27;6.00;99.90
13982;DHT22;7065;50.880;5.502;2024-03-23T02:59:53;6.00;99.90
13982;DHT22;7065;50.880;5.502;2024-03-23T03:02:18;6.00;99.90
13982;DHT22;7065;50.880;5.502;2024-03-23T03:04:44;6.00;99.90
13982;DHT22;7065;50.880;5.502;2024-03-23T03:07:10;6.00;99.90
13982;DHT22;7065;50.880;5.502;2024-03-23T03:09:35;6.00;99.90
13982;DHT22;7065;50.880;5.502;2024-03-23T03:12:02;6.00;99.90
13982;DHT22;7065;50.880;5.502;2024-03-23T03:14:28;6.00;99.90
13982;DHT22;7065;50.880;5.502;2024-03-23T03:16:54;6.00;99.90
13982;DHT22;7065;50.880;5.502;2024-03-23T03:19:20;6.00;99.90
13982;DHT22;7065;50.880;5.502;2024-03-23T03:21:45;6.00;99.90
13982;DHT22;7065;50.880;5.502;2024-03-23T03:24:13;6.00;99.90
13982;DHT22;7065;50.880;5.502;2024-03-23T03:26:38;6.00;99.90
13982;DHT22;7065;50.880;5.502;2024-03-23T03:29:04;6.00;99.90
13982;DHT22;7065;50.880;5.502;2024-03-23T03:31:30;5.90;99.90
13982;DHT22;7065;50.880;5.502;2024-03-23T03:33:55;6.00;99.90
13982;DHT22;7065;50.880;5.502;2024-03-23T03:36:21;6.00;99.90
13982;DHT22;7065;50.880;5.502;2024-03-23T03:38:47;6.00;99.90
13982;DHT22;7065;50.880;5.502;2024-03-23T03:41:12;5.90;99.90
13982;DHT22;7065;50.880;5.502;2024-03-23T03:43:38;5.90;99.90
13982;DHT22;7065;50.880;5.502;2024-03-23T03:46:04;6.00;99.90
13982;DHT22;7065;50.880;5.502;2024-03-23T03:48:30;5.90;99.90
13982;DHT22;7065;50.880;5.502;2024-03-23T03:50:55;6.00;99.90
13982;DHT22;7065;50.880;5.502;2024-03-23T03:53:21;6.00;99.90
13982;DHT22;7065;50.880;5.502;2024-03-23T03:55:47;6.00;99.90
13982;DHT22;7065;50.880;5.502;2024-03-23T03:58:13;6.00;99.90
13982;DHT22;7065;50.880;5.502;2024-03-23T04:00:39;6.00;99.90
13982;DHT22;7065;50.880;5.502;2024-03-23T04:03:05;6.00;99.90
13982;DHT22;7065;50.880;5.502;2024-03-23T04:05:31;6.00;99.90
13982;DHT22;7065;50.880;5.502;2024-03-23T04:07:56;5.90;99.90
13982;DHT22;7065;50.880;5.502;2024-03-23T04:10:22;6.00;99.90
13982;DHT22;7065;50.880;5.502;2024-03-23T04:12:48;6.00;99.90
13982;DHT22;7065;50.880;5.502;2024-03-23T04:15:14;6.00;99.90
13982;DHT22;7065;50.880;5.502;2024-03-23T04:17:39;6.00;99.90
13982;DHT22;7065;50.880;5.502;2024-03-23T04:20:08;6.00;99.90
13982;DHT22;7065;50.880;5.502;2024-03-23T04:22:40;6.00;99.90
13982;DHT22;7065;50.880;5.502;2024-03-23T04:25:06;6.00;99.90
13982;DHT22;7065;50.880;5.502;2024-03-23T04:27:38;6.00;99.90
13982;DHT22;7065;50.880;5.502;2024-03-23T04:30:05;5.90;99.90
13982;DHT22;7065;50.880;5.502;2024-03-23T04:32:39;5.90;99.90
13982;DHT22;7065;50.880;5.502;2024-03-23T04:35:05;5.90;99.90
13982;DHT22;7065;50.880;5.502;2024-03-23T04:37:32;5.90;99.90
13982;DHT22;7065;50.880;5.502;2024-03-23T04:40:00;5.80;99.90
13982;DHT22;7065;50.880;5.502;2024-03-23T04:42:27;5.80;99.90
13982;DHT22;7065;50.880;5.502;2024-03-23T04:44:53;5.80;99.90
13982;DHT22;7065;50.880;5.502;2024-03-23T04:47:18;5.80;99.90
13982;DHT22;7065;50.880;5.502;2024-03-23T04:49:44;5.70;99.90
13982;DHT22;7065;50.880;5.502;2024-03-23T04:52:10;5.70;99.90
13982;DHT22;7065;50.880;5.502;2024-03-23T04:54:35;5.60;99.90
13982;DHT22;7065;50.880;5.502;2024-03-23T04:57:01;5.60;99.90
13982;DHT22;7065;50.880;5.502;2024-03-23T04:59:27;5.50;99.90
13982;DHT22;7065;50.880;5.502;2024-03-23T05:01:52;5.50;99.90
13982;DHT22;7065;50.880;5.502;2024-03-23T05:04:18;5.50;99.90
13982;DHT22;7065;50.880;5.502;2024-03-23T05:06:44;5.50;99.90
13982;DHT22;7065;50.880;5.502;2024-03-23T05:09:09;5.50;99.90
13982;DHT22;7065;50.880;5.502;2024-03-23T05:11:38;5.50;99.90
13982;DHT22;7065;50.880;5.502;2024-03-23T05:14:04;5.50;99.90
13982;DHT22;7065;50.880;5.502;2024-03-23T05:16:30;5.50;99.90
13982;DHT22;7065;50.880;5.502;2024-03-23T05:18:55;5.50;99.90
13982;DHT22;7065;50.880;5.502;2024-03-23T05:21:21;5.60;99.90
13982;DHT22;7065;50.880;5.502;2024-03-23T05:23:47;5.70;99.90
13982;DHT22;7065;50.880;5.502;2024-03-23T05:26:13;5.70;99.90
13982;DHT22;7065;50.880;5.502;2024-03-23T05:28:39;5.70;99.90
13982;DHT22;7065;50.880;5.502;2024-03-23T05:31:04;5.70;99.90
13982;DHT22;7065;50.880;5.502;2024-03-23T05:33:30;5.60;99.90
13982;DHT22;7065;50.880;5.502;2024-03-23T05:35:57;5.60;99.90
13982;DHT22;7065;50.880;5.502;2024-03-23T05:38:23;5.60;99.90
13982;DHT22;7065;50.880;5.502;2024-03-23T05:40:55;5.60;99.90
13982;DHT22;7065;50.880;5.502;2024-03-23T05:43:22;5.60;99.90
13982;DHT22;7065;50.880;5.502;2024-03-23T05:46:00;5.70;99.90
13982;DHT22;7065;50.880;5.502;2024-03-23T05:48:27;5.70;99.90
13982;DHT22;7065;50.880;5.502;2024-03-23T05:50:53;5.70;99.90
13982;DHT22;7065;50.880;5.502;2024-03-23T05:53:20;5.70;99.90
13982;DHT22;7065;50.880;5.502;2024-03-23T05:55:48;5.80;99.90
13982;DHT22;7065;50.880;5.502;2024-03-23T05:58:17;5.80;99.90
13982;DHT22;7065;50.880;5.502;2024-03-23T06:00:46;5.70;99.90
13982;DHT22;7065;50.880;5.502;2024-03-23T06:03:12;5.80;99.90
13982;DHT22;7065;50.880;5.502;2024-03-23T06:05:38;5.80;99.90
13982;DHT22;7065;50.880;5.502;2024-03-23T06:08:04;5.80;99.90
13982;DHT22;7065;50.880;5.502;2024-03-23T06:10:30;5.90;99.90
13982;DHT22;7065;50.880;5.502;2024-03-23T06:12:57;5.90;99.90
13982;DHT22;7065;50.880;5.502;2024-03-23T06:15:24;5.90;99.90
13982;DHT22;7065;50.880;5.502;2024-03-23T06:17:49;5.80;99.90
13982;DHT22;7065;50.880;5.502;2024-03-23T06:20:15;5.80;99.90
13982;DHT22;7065;50.880;5.502;2024-03-23T06:22:42;5.80;99.90
13982;DHT22;7065;50.880;5.502;2024-03-23T06:25:08;5.80;99.90
13982;DHT22;7065;50.880;5.502;2024-03-23T06:27:33;5.90;99.90
13982;DHT22;7065;50.880;5.502;2024-03-23T06:30:00;6.00;99.90
13982;DHT22;7065;50.880;5.502;2024-03-23T06:32:25;6.00;99.90
13982;DHT22;7065;50.880;5.502;2024-03-23T06:34:51;6.00;99.90
13982;DHT22;7065;50.880;5.502;2024-03-23T06:37:17;6.00;99.90
13982;DHT22;7065;50.880;5.502;2024-03-23T06:39:43;6.00;99.90
13982;DHT22;7065;50.880;5.502;2024-03-23T06:42:08;6.10;99.90
13982;DHT22;7065;50.880;5.502;2024-03-23T06:44:34;6.10;99.90
13982;DHT22;7065;50.880;5.502;2024-03-23T06:47:00;6.00;99.90
13982;DHT22;7065;50.880;5.502;2024-03-23T06:49:26;6.00;99.90
13982;DHT22;7065;50.880;5.502;2024-03-23T06:51:51;6.00;99.90
13982;DHT22;7065;50.880;5.502;2024-03-23T06:54:19;6.00;99.90
13982;DHT22;7065;50.880;5.502;2024-03-23T06:56:45;6.10;99.90
13982;DHT22;7065;50.880;5.502;2024-03-23T06:59:11;6.10;99.90
13982;DHT22;7065;50.880;5.502;2024-03-23T07:01:37;6.20;99.90
13982;DHT22;7065;50.880;5.502;2024-03-23T07:04:03;6.30;99.90
13982;DHT22;7065;50.880;5.502;2024-03-23T07:06:30;6.40;99.90
13982;DHT22;7065;50.880;5.502;2024-03-23T07:08:55;6.50;99.90
13982;DHT22;7065;50.880;5.502;2024-03-23T07:11:22;6.50;99.90
13982;DHT22;7065;50.880;5.502;2024-03-23T07:13:52;6.60;99.90
13982;DHT22;7065;50.880;5.502;2024-03-23T07:16:20;6.60;99.90
13982;DHT22;7065;50.880;5.502;2024-03-23T07:18:45;6.60;99.90
13982;DHT22;7065;50.880;5.502;2024-03-23T07:21:11;6.60;99.90
13982;DHT22;7065;50.880;5.502;2024-03-23T07:23:36;6.60;99.90
13982;DHT22;7065;50.880;5.502;2024-03-23T07:26:04;6.50;99.90
13982;DHT22;7065;50.880;5.502;2024-03-23T07:28:33;6.40;99.90
13982;DHT22;7065;50.880;5.502;2024-03-23T07:31:18;6.40;99.90
13982;DHT22;7065;50.880;5.502;2024-03-23T07:33:48;6.50;99.90
13982;DHT22;7065;50.880;5.502;2024-03-23T07:36:13;6.60;99.90
13982;DHT22;7065;50.880;5.502;2024-03-23T07:38:43;6.70;99.90
13982;DHT22;7065;50.880;5.502;2024-03-23T07:41:11;6.80;99.90
13982;DHT22;7065;50.880;5.502;2024-03-23T07:43:38;6.90;99.90
13982;DHT22;7065;50.880;5.502;2024-03-23T07:46:04;6.90;99.90
13982;DHT22;7065;50.880;5.502;2024-03-23T07:48:31;6.90;99.90
13982;DHT22;7065;50.880;5.502;2024-03-23T07:51:04;6.90;99.90
13982;DHT22;7065;50.880;5.502;2024-03-23T07:53:31;7.00;99.90
13982;DHT22;7065;50.880;5.502;2024-03-23T07:56:08;7.00;99.90
13982;DHT22;7065;50.880;5.502;2024-03-23T07:58:34;7.10;99.90
13982;DHT22;7065;50.880;5.502;2024-03-23T08:01:07;7.10;99.90
13982;DHT22;7065;50.880;5.502;2024-03-23T08:03:36;7.10;99.90
13982;DHT22;7065;50.880;5.502;2024-03-23T08:06:18;7.10;99.90
13982;DHT22;7065;50.880;5.502;2024-03-23T08:08:46;7.00;99.90
13982;DHT22;7065;50.880;5.502;2024-03-23T08:11:12;6.90;99.90
13982;DHT22;7065;50.880;5.502;2024-03-23T08:13:41;6.90;99.90
13982;DHT22;7065;50.880;5.502;2024-03-23T08:16:08;6.90;99.90
13982;DHT22;7065;50.880;5.502;2024-03-23T08:18:39;7.10;99.90
13982;DHT22;7065;50.880;5.502;2024-03-23T08:21:06;7.20;99.90
13982;DHT22;7065;50.880;5.502;2024-03-23T08:23:33;7.30;99.90
13982;DHT22;7065;50.880;5.502;2024-03-23T08:26:00;7.50;99.90
13982;DHT22;7065;50.880;5.502;2024-03-23T08:28:27;7.50;99.90
13982;DHT22;7065;50.880;5.502;2024-03-23T08:30:54;7.40;99.90
13982;DHT22;7065;50.880;5.502;2024-03-23T08:33:20;7.40;99.90
13982;DHT22;7065;50.880;5.502;2024-03-23T08:35:55;7.30;99.90
13982;DHT22;7065;50.880;5.502;2024-03-23T08:38:22;7.40;99.90
13982;DHT22;7065;50.880;5.502;2024-03-23T08:40:48;7.50;99.90
13982;DHT22;7065;50.880;5.502;2024-03-23T08:43:13;7.50;99.90
13982;DHT22;7065;50.880;5.502;2024-03-23T08:45:39;7.40;99.90
13982;DHT22;7065;50.880;5.502;2024-03-23T08:48:05;7.30;99.90
13982;DHT22;7065;50.880;5.502;2024-03-23T08:50:30;7.40;99.90
13982;DHT22;7065;50.880;5.502;2024-03-23T08:52:56;7.40;99.90
13982;DHT22;7065;50.880;5.502;2024-03-23T08:55:22;7.40;99.90
13982;DHT22;7065;50.880;5.502;2024-03-23T08:57:47;7.50;99.90
13982;DHT22;7065;50.880;5.502;2024-03-23T09:00:13;7.40;99.90
13982;DHT22;7065;50.880;5.502;2024-03-23T09:02:40;7.40;99.90
13982;DHT22;7065;50.880;5.502;2024-03-23T09:05:06;7.40;99.90
13982;DHT22;7065;50.880;5.502;2024-03-23T09:07:32;7.40;99.90
13982;DHT22;7065;50.880;5.502;2024-03-23T09:09:57;7.60;99.90
13982;DHT22;7065;50.880;5.502;2024-03-23T09:12:23;7.50;99.90
13982;DHT22;7065;50.880;5.502;2024-03-23T09:14:50;7.50;99.90
13982;DHT22;7065;50.880;5.502;2024-03-23T09:17:16;7.50;99.90
13982;DHT22;7065;50.880;5.502;2024-03-23T09:19:41;7.60;99.90
13982;DHT22;7065;50.880;5.502;2024-03-23T09:22:07;7.70;99.90
13982;DHT22;7065;50.880;5.502;2024-03-23T09:24:33;7.80;99.90
13982;DHT22;7065;50.880;5.502;2024-03-23T09:26:58;7.90;99.90
13982;DHT22;7065;50.880;5.502;2024-03-23T09:29:24;8.00;99.90
13982;DHT22;7065;50.880;5.502;2024-03-23T09:31:49;8.20;99.90
13982;DHT22;7065;50.880;5.502;2024-03-23T09:34:15;8.10;99.90
13982;DHT22;7065;50.880;5.502;2024-03-23T09:36:41;8.10;99.90
13982;DHT22;7065;50.880;5.502;2024-03-23T09:39:07;8.10;99.90
13982;DHT22;7065;50.880;5.502;2024-03-23T09:41:35;8.10;99.90
13982;DHT22;7065;50.880;5.502;2024-03-23T09:44:01;8.20;99.90
13982;DHT22;7065;50.880;5.502;2024-03-23T09:46:27;8.20;99.90
13982;DHT22;7065;50.880;5.502;2024-03-23T09:48:55;8.20;99.90
13982;DHT22;7065;50.880;5.502;2024-03-23T09:51:21;8.20;99.90
13982;DHT22;7065;50.880;5.502;2024-03-23T09:53:49;8.20;99.90
13982;DHT22;7065;50.880;5.502;2024-03-23T09:56:15;8.10;99.90
13982;DHT22;7065;50.880;5.502;2024-03-23T09:58:42;8.20;99.90
13982;DHT22;7065;50.880;5.502;2024-03-23T10:01:09;8.30;99.90
13982;DHT22;7065;50.880;5.502;2024-03-23T10:03:46;8.60;99.90
13982;DHT22;7065;50.880;5.502;2024-03-23T10:06:12;8.80;99.90
13982;DHT22;7065;50.880;5.502;2024-03-23T10:08:38;8.70;99.90
13982;DHT22;7065;50.880;5.502;2024-03-23T10:11:15;8.70;99.90
13982;DHT22;7065;50.880;5.502;2024-03-23T10:13:43;8.60;99.90
13982;DHT22;7065;50.880;5.502;2024-03-23T10:16:10;8.70;99.90
13982;DHT22;7065;50.880;5.502;2024-03-23T10:18:39;8.80;99.90
13982;DHT22;7065;50.880;5.502;2024-03-23T10:23:34;8.70;99.90
13982;DHT22;7065;50.880;5.502;2024-03-23T10:26:19;8.50;99.90
13982;DHT22;7065;50.880;5.502;2024-03-23T10:28:55;8.40;99.90
13982;DHT22;7065;50.880;5.502;2024-03-23T10:31:23;8.50;99.90
13982;DHT22;7065;50.880;5.502;2024-03-23T10:33:49;8.60;99.90
13982;DHT22;7065;50.880;5.502;2024-03-23T10:36:15;8.80;99.90
13982;DHT22;7065;50.880;5.502;2024-03-23T10:38:42;8.70;99.90
13982;DHT22;7065;50.880;5.502;2024-03-23T10:41:09;8.50;99.90
13982;DHT22;7065;50.880;5.502;2024-03-23T10:43:36;8.40;99.90
13982;DHT22;7065;50.880;5.502;2024-03-23T10:46:03;8.60;99.90
13982;DHT22;7065;50.880;5.502;2024-03-23T10:48:29;8.60;99.90
13982;DHT22;7065;50.880;5.502;2024-03-23T10:50:55;8.60;99.90
13982;DHT22;7065;50.880;5.502;2024-03-23T10:53:26;8.50;99.90
13982;DHT22;7065;50.880;5.502;2024-03-23T10:55:52;8.70;99.90
13982;DHT22;7065;50.880;5.502;2024-03-23T10:58:33;8.80;99.90
13982;DHT22;7065;50.880;5.502;2024-03-23T11:01:02;8.90;99.90
13982;DHT22;7065;50.880;5.502;2024-03-23T11:03:35;9.10;99.90
13982;DHT22;7065;50.880;5.502;2024-03-23T11:06:05;9.20;99.90
13982;DHT22;7065;50.880;5.502;2024-03-23T11:08:32;9.20;99.90
13982;DHT22;7065;50.880;5.502;2024-03-23T11:11:22;9.30;99.90
13982;DHT22;7065;50.880;5.502;2024-03-23T11:13:53;9.20;99.90
13982;DHT22;7065;50.880;5.502;2024-03-23T11:16:29;9.30;99.90
13982;DHT22;7065;50.880;5.502;2024-03-23T11:22:00;9.50;99.90
13982;DHT22;7065;50.880;5.502;2024-03-23T11:24:26;9.50;99.90
13982;DHT22;7065;50.880;5.502;2024-03-23T11:26:52;9.70;99.90
13982;DHT22;7065;50.880;5.502;2024-03-23T11:29:18;9.70;99.90
13982;DHT22;7065;50.880;5.502;2024-03-23T11:31:52;9.80;99.90
13982;DHT22;7065;50.880;5.502;2024-03-23T11:34:21;9.60;99.90
13982;DHT22;7065;50.880;5.502;2024-03-23T11:36:48;9.50;99.90
13982;DHT22;7065;50.880;5.502;2024-03-23T11:39:15;9.50;99.90
13982;DHT22;7065;50.880;5.502;2024-03-23T11:41:49;9.50;99.90
13982;DHT22;7065;50.880;5.502;2024-03-23T11:44:21;9.40;99.90
13982;DHT22;7065;50.880;5.502;2024-03-23T11:46:48;9.40;99.90
13982;DHT22;7065;50.880;5.502;2024-03-23T11:49:23;9.40;99.90
13982;DHT22;7065;50.880;5.502;2024-03-23T11:51:49;9.30;99.90
13982;DHT22;7065;50.880;5.502;2024-03-23T11:54:15;9.20;99.90
13982;DHT22;7065;50.880;5.502;2024-03-23T11:56:57;9.40;99.90
13982;DHT22;7065;50.880;5.502;2024-03-23T11:59:32;9.70;99.90
13982;DHT22;7065;50.880;5.502;2024-03-23T12:01:58;9.90;99.90
13982;DHT22;7065;50.880;5.502;2024-03-23T12:04:27;10.10;99.90
13982;DHT22;7065;50.880;5.502;2024-03-23T12:07:15;10.10;99.90
13982;DHT22;7065;50.880;5.502;2024-03-23T12:09:42;10.30;99.90
13982;DHT22;7065;50.880;5.502;2024-03-23T12:12:16;10.20;99.90
13982;DHT22;7065;50.880;5.502;2024-03-23T12:15:00;10.30;99.90
13982;DHT22;7065;50.880;5.502;2024-03-23T12:17:26;10.20;99.90
13982;DHT22;7065;50.880;5.502;2024-03-23T12:19:52;9.90;99.90
13982;DHT22;7065;50.880;5.502;2024-03-23T12:22:21;9.50;99.90
13982;DHT22;7065;50.880;5.502;2024-03-23T12:24:48;9.10;99.90
13982;DHT22;7065;50.880;5.502;2024-03-23T12:27:14;8.90;99.90
13982;DHT22;7065;50.880;5.502;2024-03-23T12:29:40;8.80;99.90
13982;DHT22;7065;50.880;5.502;2024-03-23T12:32:11;8.60;99.90
13982;DHT22;7065;50.880;5.502;2024-03-23T12:34:37;8.50;99.90
13982;DHT22;7065;50.880;5.502;2024-03-23T12:37:03;8.60;99.90
13982;DHT22;7065;50.880;5.502;2024-03-23T12:39:29;8.70;99.90
13982;DHT22;7065;50.880;5.502;2024-03-23T12:41:55;8.70;99.90
13982;DHT22;7065;50.880;5.502;2024-03-23T12:44:21;8.90;99.90
13982;DHT22;7065;50.880;5.502;2024-03-23T12:46:47;9.00;99.90
13982;DHT22;7065;50.880;5.502;2024-03-23T12:49:12;9.10;99.90
13982;DHT22;7065;50.880;5.502;2024-03-23T12:51:38;9.30;99.90
13982;DHT22;7065;50.880;5.502;2024-03-23T12:54:04;9.20;99.90
13982;DHT22;7065;50.880;5.502;2024-03-23T12:56:30;9.10;99.90
13982;DHT22;7065;50.880;5.502;2024-03-23T12:58:58;9.20;99.90
13982;DHT22;7065;50.880;5.502;2024-03-23T13:01:24;9.40;99.90
13982;DHT22;7065;50.880;5.502;2024-03-23T13:03:50;9.50;99.90
13982;DHT22;7065;50.880;5.502;2024-03-23T13:06:17;9.50;99.90
13982;DHT22;7065;50.880;5.502;2024-03-23T13:08:46;9.50;99.90
13982;DHT22;7065;50.880;5.502;2024-03-23T13:11:12;9.60;99.90
13982;DHT22;7065;50.880;5.502;2024-03-23T13:13:39;9.50;99.90
13982;DHT22;7065;50.880;5.502;2024-03-23T13:16:05;9.40;99.90
13982;DHT22;7065;50.880;5.502;2024-03-23T13:18:32;9.30;99.90
13982;DHT22;7065;50.880;5.502;2024-03-23T13:20:58;9.20;99.90
13982;DHT22;7065;50.880;5.502;2024-03-23T13:23:24;9.10;99.90
13982;DHT22;7065;50.880;5.502;2024-03-23T13:25:54;9.10;99.90
13982;DHT22;7065;50.880;5.502;2024-03-23T13:28:21;8.90;99.90
13982;DHT22;7065;50.880;5.502;2024-03-23T13:30:55;9.00;99.90
13982;DHT22;7065;50.880;5.502;2024-03-23T13:33:21;9.00;99.90
13982;DHT22;7065;50.880;5.502;2024-03-23T13:35:54;9.20;99.90
13982;DHT22;7065;50.880;5.502;2024-03-23T13:38:21;9.30;99.90
13982;DHT22;7065;50.880;5.502;2024-03-23T13:40:57;9.60;99.90
13982;DHT22;7065;50.880;5.502;2024-03-23T13:43:24;9.70;99.90
13982;DHT22;7065;50.880;5.502;2024-03-23T13:46:01;9.80;99.90
13982;DHT22;7065;50.880;5.502;2024-03-23T13:48:27;9.70;99.90
13982;DHT22;7065;50.880;5.502;2024-03-23T13:51:04;9.60;99.90
13982;DHT22;7065;50.880;5.502;2024-03-23T13:53:30;9.30;99.90
13982;DHT22;7065;50.880;5.502;2024-03-23T13:55:56;9.30;99.90
13982;DHT22;7065;50.880;5.502;2024-03-23T13:58:22;9.30;99.90
13982;DHT22;7065;50.880;5.502;2024-03-23T14:00:51;9.40;99.90
13982;DHT22;7065;50.880;5.502;2024-03-23T14:03:17;9.50;99.90
13982;DHT22;7065;50.880;5.502;2024-03-23T14:05:44;9.70;99.90
13982;DHT22;7065;50.880;5.502;2024-03-23T14:08:10;9.70;99.90
13982;DHT22;7065;50.880;5.502;2024-03-23T14:10:39;9.90;99.90
13982;DHT22;7065;50.880;5.502;2024-03-23T14:13:05;10.00;99.90
13982;DHT22;7065;50.880;5.502;2024-03-23T14:15:31;10.00;99.90
13982;DHT22;7065;50.880;5.502;2024-03-23T14:17:57;10.00;99.90
13982;DHT22;7065;50.880;5.502;2024-03-23T14:20:23;10.10;99.90
13982;DHT22;7065;50.880;5.502;2024-03-23T14:22:49;10.30;99.90
13982;DHT22;7065;50.880;5.502;2024-03-23T14:25:15;10.30;99.90
13982;DHT22;7065;50.880;5.502;2024-03-23T14:27:41;10.00;99.90
13982;DHT22;7065;50.880;5.502;2024-03-23T14:30:07;9.70;99.90
13982;DHT22;7065;50.880;5.502;2024-03-23T14:32:32;9.40;99.90
13982;DHT22;7065;50.880;5.502;2024-03-23T14:35:05;9.40;99.90
13982;DHT22;7065;50.880;5.502;2024-03-23T14:37:32;9.20;99.90
13982;DHT22;7065;50.880;5.502;2024-03-23T14:39:58;8.10;99.90
13982;DHT22;7065;50.880;5.502;2024-03-23T14:42:24;7.40;99.90
13982;DHT22;7065;50.880;5.502;2024-03-23T14:44:51;7.00;99.90
13982;DHT22;7065;50.880;5.502;2024-03-23T14:47:17;6.80;99.90
13982;DHT22;7065;50.880;5.502;2024-03-23T14:49:44;6.90;99.90
13982;DHT22;7065;50.880;5.502;2024-03-23T14:52:13;7.10;99.90
13982;DHT22;7065;50.880;5.502;2024-03-23T14:54:39;7.30;99.90
13982;DHT22;7065;50.880;5.502;2024-03-23T14:57:05;7.40;99.90
13982;DHT22;7065;50.880;5.502;2024-03-23T14:59:32;7.60;99.90
13982;DHT22;7065;50.880;5.502;2024-03-23T15:01:57;7.70;99.90
13982;DHT22;7065;50.880;5.502;2024-03-23T15:04:23;7.70;99.90
13982;DHT22;7065;50.880;5.502;2024-03-23T15:06:49;7.60;99.90
13982;DHT22;7065;50.880;5.502;2024-03-23T15:09:15;7.60;99.90
13982;DHT22;7065;50.880;5.502;2024-03-23T15:11:41;7.60;99.90
13982;DHT22;7065;50.880;5.502;2024-03-23T15:14:07;7.60;99.90
13982;DHT22;7065;50.880;5.502;2024-03-23T15:16:33;7.60;99.90
13982;DHT22;7065;50.880;5.502;2024-03-23T15:18:59;7.60;99.90
13982;DHT22;7065;50.880;5.502;2024-03-23T15:21:25;7.50;99.90
13982;DHT22;7065;50.880;5.502;2024-03-23T15:23:51;7.50;99.90
13982;DHT22;7065;50.880;5.502;2024-03-23T15:26:16;7.60;99.90
13982;DHT22;7065;50.880;5.502;2024-03-23T15:28:42;7.60;99.90
13982;DHT22;7065;50.880;5.502;2024-03-23T15:31:23;7.50;99.90
13982;DHT22;7065;50.880;5.502;2024-03-23T15:33:49;7.60;99.90
13982;DHT22;7065;50.880;5.502;2024-03-23T15:36:15;7.80;99.90
13982;DHT22;7065;50.880;5.502;2024-03-23T15:38:40;7.90;99.90
13982;DHT22;7065;50.880;5.502;2024-03-23T15:41:06;8.00;99.90
13982;DHT22;7065;50.880;5.502;2024-03-23T15:43:33;8.00;99.90
13982;DHT22;7065;50.880;5.502;2024-03-23T15:46:03;7.90;99.90
13982;DHT22;7065;50.880;5.502;2024-03-23T15:48:30;7.90;99.90
13982;DHT22;7065;50.880;5.502;2024-03-23T15:50:57;8.00;99.90
13982;DHT22;7065;50.880;5.502;2024-03-23T15:53:24;8.10;99.90
13982;DHT22;7065;50.880;5.502;2024-03-23T15:55:57;8.30;99.90
13982;DHT22;7065;50.880;5.502;2024-03-23T15:58:26;8.50;99.90
13982;DHT22;7065;50.880;5.502;2024-03-23T16:01:02;8.60;99.90
13982;DHT22;7065;50.880;5.502;2024-03-23T16:03:29;8.60;99.90
13982;DHT22;7065;50.880;5.502;2024-03-23T16:05:56;8.90;99.90
13982;DHT22;7065;50.880;5.502;2024-03-23T16:08:22;8.80;99.90
13982;DHT22;7065;50.880;5.502;2024-03-23T16:10:48;8.80;99.90
13982;DHT22;7065;50.880;5.502;2024-03-23T16:13:15;8.70;99.90
13982;DHT22;7065;50.880;5.502;2024-03-23T16:15:41;8.70;99.90
13982;DHT22;7065;50.880;5.502;2024-03-23T16:18:07;8.70;99.90
13982;DHT22;7065;50.880;5.502;2024-03-23T16:20:33;8.60;99.90
13982;DHT22;7065;50.880;5.502;2024-03-23T16:23:03;8.60;99.90
13982;DHT22;7065;50.880;5.502;2024-03-23T16:25:29;8.70;99.90
13982;DHT22;7065;50.880;5.502;2024-03-23T16:27:56;8.70;99.90
13982;DHT22;7065;50.880;5.502;2024-03-23T16:30:21;8.70;99.90
13982;DHT22;7065;50.880;5.502;2024-03-23T16:32:47;8.60;99.90
13982;DHT22;7065;50.880;5.502;2024-03-23T16:35:14;8.50;99.90
13982;DHT22;7065;50.880;5.502;2024-03-23T16:37:40;8.50;99.90
13982;DHT22;7065;50.880;5.502;2024-03-23T16:40:06;8.40;99.90
13982;DHT22;7065;50.880;5.502;2024-03-23T16:42:32;8.40;99.90
13982;DHT22;7065;50.880;5.502;2024-03-23T16:44:58;8.30;99.90
13982;DHT22;7065;50.880;5.502;2024-03-23T16:47:24;8.20;99.90
13982;DHT22;7065;50.880;5.502;2024-03-23T16:49:49;8.10;99.90
13982;DHT22;7065;50.880;5.502;2024-03-23T16:52:15;8.10;99.90
13982;DHT22;7065;50.880;5.502;2024-03-23T16:54:41;8.10;99.90
13982;DHT22;7065;50.880;5.502;2024-03-23T16:57:07;7.90;99.90
13982;DHT22;7065;50.880;5.502;2024-03-23T16:59:33;7.70;99.90